sensor_id;sensor_type;location;lat;lon;timestamp;P1;durP1;ratioP1;P2;durP2;ratioP2
14316;SDS011;7242;50.858;6.586;2022-10-16T00:01:43;2.63;;;1.70;;
14316;SDS011;7242;50.858;6.586;2022-10-16T00:04:44;3.50;;;1.90;;
14316;SDS011;7242;50.858;6.586;2022-10-16T00:07:45;2.07;;;1.80;;
14316;SDS011;7242;50.858;6.586;2022-10-16T00:10:46;2.80;;;1.70;;
14316;SDS011;7242;50.858;6.586;2022-10-16T00:13:48;1.87;;;1.63;;
14316;SDS011;7242;50.858;6.586;2022-10-16T00:16:50;3.77;;;1.60;;
14316;SDS011;7242;50.858;6.586;2022-10-16T00:19:51;2.77;;;1.70;;
14316;SDS011;7242;50.858;6.586;2022-10-16T00:22:52;2.13;;;1.77;;
14316;SDS011;7242;50.858;6.586;2022-10-16T00:25:54;3.33;;;1.90;;
14316;SDS011;7242;50.858;6.586;2022-10-16T00:28:59;1.70;;;1.60;;
14316;SDS011;7242;50.858;6.586;2022-10-16T00:32:00;2.27;;;1.70;;
14316;SDS011;7242;50.858;6.586;2022-10-16T00:35:01;2.60;;;2.03;;
14316;SDS011;7242;50.858;6.586;2022-10-16T00:38:03;1.77;;;1.67;;
14316;SDS011;7242;50.858;6.586;2022-10-16T00:41:10;3.10;;;2.00;;
14316;SDS011;7242;50.858;6.586;2022-10-16T00:47:34;2.20;;;2.10;;
14316;SDS011;7242;50.858;6.586;2022-10-16T00:50:35;2.90;;;2.10;;
14316;SDS011;7242;50.858;6.586;2022-10-16T00:53:37;2.07;;;1.97;;
14316;SDS011;7242;50.858;6.586;2022-10-16T00:56:38;2.27;;;2.07;;
14316;SDS011;7242;50.858;6.586;2022-10-16T00:59:40;2.10;;;1.90;;
14316;SDS011;7242;50.858;6.586;2022-10-16T01:02:41;2.30;;;2.00;;
14316;SDS011;7242;50.858;6.586;2022-10-16T01:05:44;1.90;;;1.80;;
14316;SDS011;7242;50.858;6.586;2022-10-16T01:08:55;2.67;;;2.00;;
14316;SDS011;7242;50.858;6.586;2022-10-16T01:12:20;1.97;;;1.60;;
14316;SDS011;7242;50.858;6.586;2022-10-16T01:21:32;2.23;;;1.77;;
14316;SDS011;7242;50.858;6.586;2022-10-16T01:24:40;2.83;;;2.07;;
14316;SDS011;7242;50.858;6.586;2022-10-16T01:27:45;2.63;;;1.60;;
14316;SDS011;7242;50.858;6.586;2022-10-16T01:30:47;3.50;;;1.80;;
14316;SDS011;7242;50.858;6.586;2022-10-16T01:33:59;2.10;;;1.80;;
14316;SDS011;7242;50.858;6.586;2022-10-16T01:37:25;1.90;;;1.60;;
14316;SDS011;7242;50.858;6.586;2022-10-16T01:40:29;1.40;;;1.30;;
14316;SDS011;7242;50.858;6.586;2022-10-16T01:43:40;1.70;;;1.60;;
14316;SDS011;7242;50.858;6.586;2022-10-16T01:46:47;1.80;;;1.60;;
14316;SDS011;7242;50.858;6.586;2022-10-16T01:49:49;1.50;;;1.40;;
14316;SDS011;7242;50.858;6.586;2022-10-16T01:52:51;2.40;;;1.73;;
14316;SDS011;7242;50.858;6.586;2022-10-16T01:55:55;1.93;;;1.80;;
14316;SDS011;7242;50.858;6.586;2022-10-16T01:59:01;2.30;;;1.70;;
14316;SDS011;7242;50.858;6.586;2022-10-16T02:02:05;1.60;;;1.50;;
14316;SDS011;7242;50.858;6.586;2022-10-16T02:08:17;1.50;;;1.40;;
14316;SDS011;7242;50.858;6.586;2022-10-16T02:11:19;2.77;;;1.40;;
14316;SDS011;7242;50.858;6.586;2022-10-16T02:14:20;1.60;;;1.50;;
14316;SDS011;7242;50.858;6.586;2022-10-16T02:17:24;1.50;;;1.40;;
14316;SDS011;7242;50.858;6.586;2022-10-16T02:20:27;1.70;;;1.60;;
14316;SDS011;7242;50.858;6.586;2022-10-16T02:23:35;1.87;;;1.30;;
14316;SDS011;7242;50.858;6.586;2022-10-16T02:29:47;1.83;;;1.30;;
14316;SDS011;7242;50.858;6.586;2022-10-16T02:32:50;1.93;;;1.23;;
14316;SDS011;7242;50.858;6.586;2022-10-16T02:35:53;1.40;;;1.30;;
14316;SDS011;7242;50.858;6.586;2022-10-16T02:38:55;1.67;;;1.30;;
14316;SDS011;7242;50.858;6.586;2022-10-16T02:41:56;1.37;;;1.27;;
14316;SDS011;7242;50.858;6.586;2022-10-16T02:44:57;1.53;;;1.00;;
14316;SDS011;7242;50.858;6.586;2022-10-16T02:47:59;1.10;;;1.00;;
14316;SDS011;7242;50.858;6.586;2022-10-16T02:51:00;1.00;;;0.90;;
14316;SDS011;7242;50.858;6.586;2022-10-16T02:54:02;1.23;;;0.90;;
14316;SDS011;7242;50.858;6.586;2022-10-16T02:57:03;1.03;;;0.90;;
14316;SDS011;7242;50.858;6.586;2022-10-16T03:00:05;2.20;;;1.00;;
14316;SDS011;7242;50.858;6.586;2022-10-16T03:03:06;1.80;;;1.00;;
14316;SDS011;7242;50.858;6.586;2022-10-16T03:06:08;1.40;;;0.93;;
14316;SDS011;7242;50.858;6.586;2022-10-16T03:09:09;1.00;;;0.80;;
14316;SDS011;7242;50.858;6.586;2022-10-16T03:12:10;1.73;;;1.00;;
14316;SDS011;7242;50.858;6.586;2022-10-16T03:15:12;1.20;;;0.77;;
14316;SDS011;7242;50.858;6.586;2022-10-16T03:18:13;2.40;;;1.00;;
14316;SDS011;7242;50.858;6.586;2022-10-16T03:21:14;1.20;;;1.07;;
14316;SDS011;7242;50.858;6.586;2022-10-16T03:24:16;1.27;;;1.10;;
14316;SDS011;7242;50.858;6.586;2022-10-16T03:27:17;1.27;;;0.90;;
14316;SDS011;7242;50.858;6.586;2022-10-16T03:30:18;1.10;;;0.93;;
14316;SDS011;7242;50.858;6.586;2022-10-16T03:33:19;1.10;;;1.00;;
14316;SDS011;7242;50.858;6.586;2022-10-16T03:36:19;1.23;;;1.10;;
14316;SDS011;7242;50.858;6.586;2022-10-16T03:39:21;0.90;;;0.90;;
14316;SDS011;7242;50.858;6.586;2022-10-16T03:42:22;1.13;;;1.03;;
14316;SDS011;7242;50.858;6.586;2022-10-16T03:45:24;1.03;;;0.93;;
14316;SDS011;7242;50.858;6.586;2022-10-16T03:48:27;1.80;;;0.90;;
14316;SDS011;7242;50.858;6.586;2022-10-16T03:51:28;0.90;;;0.90;;
14316;SDS011;7242;50.858;6.586;2022-10-16T03:54:29;2.20;;;1.10;;
14316;SDS011;7242;50.858;6.586;2022-10-16T03:57:30;1.70;;;1.00;;
14316;SDS011;7242;50.858;6.586;2022-10-16T04:00:31;0.90;;;0.90;;
14316;SDS011;7242;50.858;6.586;2022-10-16T04:03:33;2.50;;;1.00;;
14316;SDS011;7242;50.858;6.586;2022-10-16T04:06:34;1.07;;;1.00;;
14316;SDS011;7242;50.858;6.586;2022-10-16T04:09:35;1.63;;;0.90;;
14316;SDS011;7242;50.858;6.586;2022-10-16T04:12:36;0.80;;;0.80;;
14316;SDS011;7242;50.858;6.586;2022-10-16T04:15:37;2.13;;;1.10;;
14316;SDS011;7242;50.858;6.586;2022-10-16T04:18:39;1.03;;;0.93;;
14316;SDS011;7242;50.858;6.586;2022-10-16T04:21:40;1.20;;;1.00;;
14316;SDS011;7242;50.858;6.586;2022-10-16T04:24:41;1.27;;;1.10;;
14316;SDS011;7242;50.858;6.586;2022-10-16T04:27:42;0.80;;;0.80;;
14316;SDS011;7242;50.858;6.586;2022-10-16T04:30:44;3.07;;;1.10;;
14316;SDS011;7242;50.858;6.586;2022-10-16T04:33:45;1.00;;;0.90;;
14316;SDS011;7242;50.858;6.586;2022-10-16T04:36:47;1.60;;;1.00;;
14316;SDS011;7242;50.858;6.586;2022-10-16T04:39:49;1.40;;;1.10;;
14316;SDS011;7242;50.858;6.586;2022-10-16T04:42:50;1.00;;;1.00;;
14316;SDS011;7242;50.858;6.586;2022-10-16T04:45:51;1.37;;;0.93;;
14316;SDS011;7242;50.858;6.586;2022-10-16T04:48:54;1.13;;;1.10;;
14316;SDS011;7242;50.858;6.586;2022-10-16T04:51:56;1.20;;;1.10;;
14316;SDS011;7242;50.858;6.586;2022-10-16T04:54:58;1.17;;;1.07;;
14316;SDS011;7242;50.858;6.586;2022-10-16T04:58:02;1.20;;;1.10;;
14316;SDS011;7242;50.858;6.586;2022-10-16T05:01:03;1.20;;;1.00;;
14316;SDS011;7242;50.858;6.586;2022-10-16T05:04:04;1.20;;;1.00;;
14316;SDS011;7242;50.858;6.586;2022-10-16T05:07:05;0.80;;;0.80;;
14316;SDS011;7242;50.858;6.586;2022-10-16T05:10:07;1.47;;;1.07;;
14316;SDS011;7242;50.858;6.586;2022-10-16T05:13:08;0.80;;;0.80;;
14316;SDS011;7242;50.858;6.586;2022-10-16T05:16:09;1.20;;;1.00;;
14316;SDS011;7242;50.858;6.586;2022-10-16T05:19:10;1.20;;;0.90;;
14316;SDS011;7242;50.858;6.586;2022-10-16T05:22:11;2.07;;;1.07;;
14316;SDS011;7242;50.858;6.586;2022-10-16T05:25:12;1.20;;;1.10;;
14316;SDS011;7242;50.858;6.586;2022-10-16T05:28:13;1.33;;;1.20;;
14316;SDS011;7242;50.858;6.586;2022-10-16T05:31:14;1.20;;;1.10;;
14316;SDS011;7242;50.858;6.586;2022-10-16T05:34:16;1.20;;;1.10;;
14316;SDS011;7242;50.858;6.586;2022-10-16T05:37:17;1.20;;;1.20;;
14316;SDS011;7242;50.858;6.586;2022-10-16T05:40:18;1.73;;;1.20;;
14316;SDS011;7242;50.858;6.586;2022-10-16T05:43:20;2.80;;;1.20;;
14316;SDS011;7242;50.858;6.586;2022-10-16T05:46:21;1.40;;;1.30;;
14316;SDS011;7242;50.858;6.586;2022-10-16T05:49:22;1.80;;;1.30;;
14316;SDS011;7242;50.858;6.586;2022-10-16T05:52:23;2.10;;;1.40;;
14316;SDS011;7242;50.858;6.586;2022-10-16T05:55:24;1.50;;;1.40;;
14316;SDS011;7242;50.858;6.586;2022-10-16T05:58:25;1.53;;;1.43;;
14316;SDS011;7242;50.858;6.586;2022-10-16T06:01:30;2.57;;;1.70;;
14316;SDS011;7242;50.858;6.586;2022-10-16T06:04:31;1.60;;;1.50;;
14316;SDS011;7242;50.858;6.586;2022-10-16T06:07:36;1.30;;;1.20;;
14316;SDS011;7242;50.858;6.586;2022-10-16T06:10:37;1.90;;;1.80;;
14316;SDS011;7242;50.858;6.586;2022-10-16T06:13:37;2.63;;;1.60;;
14316;SDS011;7242;50.858;6.586;2022-10-16T06:16:41;1.60;;;1.50;;
14316;SDS011;7242;50.858;6.586;2022-10-16T06:19:43;1.70;;;1.60;;
14316;SDS011;7242;50.858;6.586;2022-10-16T06:22:44;1.70;;;1.50;;
14316;SDS011;7242;50.858;6.586;2022-10-16T06:25:45;1.90;;;1.80;;
14316;SDS011;7242;50.858;6.586;2022-10-16T06:28:46;3.30;;;2.20;;
14316;SDS011;7242;50.858;6.586;2022-10-16T06:31:48;2.37;;;1.90;;
14316;SDS011;7242;50.858;6.586;2022-10-16T06:34:49;3.00;;;1.50;;
14316;SDS011;7242;50.858;6.586;2022-10-16T06:37:52;1.90;;;1.80;;
14316;SDS011;7242;50.858;6.586;2022-10-16T06:40:53;1.50;;;1.40;;
14316;SDS011;7242;50.858;6.586;2022-10-16T06:43:54;1.70;;;1.60;;
14316;SDS011;7242;50.858;6.586;2022-10-16T06:46:55;1.50;;;1.40;;
14316;SDS011;7242;50.858;6.586;2022-10-16T06:49:56;2.33;;;1.63;;
14316;SDS011;7242;50.858;6.586;2022-10-16T06:52:58;1.60;;;1.50;;
14316;SDS011;7242;50.858;6.586;2022-10-16T06:56:06;1.40;;;1.30;;
14316;SDS011;7242;50.858;6.586;2022-10-16T06:59:08;3.00;;;1.80;;
14316;SDS011;7242;50.858;6.586;2022-10-16T07:02:10;2.70;;;2.00;;
14316;SDS011;7242;50.858;6.586;2022-10-16T07:05:11;1.67;;;1.50;;
14316;SDS011;7242;50.858;6.586;2022-10-16T07:08:11;1.50;;;1.40;;
14316;SDS011;7242;50.858;6.586;2022-10-16T07:11:14;1.40;;;1.30;;
14316;SDS011;7242;50.858;6.586;2022-10-16T07:14:17;2.17;;;1.30;;
14316;SDS011;7242;50.858;6.586;2022-10-16T07:17:19;1.53;;;1.10;;
14316;SDS011;7242;50.858;6.586;2022-10-16T07:20:20;1.30;;;1.20;;
14316;SDS011;7242;50.858;6.586;2022-10-16T07:23:21;1.30;;;1.20;;
14316;SDS011;7242;50.858;6.586;2022-10-16T07:26:23;1.40;;;1.30;;
14316;SDS011;7242;50.858;6.586;2022-10-16T07:29:24;2.10;;;1.10;;
14316;SDS011;7242;50.858;6.586;2022-10-16T07:32:25;1.47;;;1.00;;
14316;SDS011;7242;50.858;6.586;2022-10-16T07:35:26;0.70;;;0.70;;
14316;SDS011;7242;50.858;6.586;2022-10-16T07:38:27;0.67;;;0.67;;
14316;SDS011;7242;50.858;6.586;2022-10-16T07:41:28;2.27;;;0.80;;
14316;SDS011;7242;50.858;6.586;2022-10-16T07:44:30;1.90;;;1.00;;
14316;SDS011;7242;50.858;6.586;2022-10-16T07:47:31;1.17;;;0.93;;
14316;SDS011;7242;50.858;6.586;2022-10-16T07:50:32;1.00;;;0.80;;
14316;SDS011;7242;50.858;6.586;2022-10-16T07:53:33;1.03;;;0.90;;
14316;SDS011;7242;50.858;6.586;2022-10-16T07:56:35;1.67;;;1.13;;
14316;SDS011;7242;50.858;6.586;2022-10-16T07:59:36;1.63;;;1.17;;
14316;SDS011;7242;50.858;6.586;2022-10-16T08:02:37;2.93;;;1.53;;
14316;SDS011;7242;50.858;6.586;2022-10-16T08:05:38;2.37;;;1.27;;
14316;SDS011;7242;50.858;6.586;2022-10-16T08:08:40;1.30;;;1.17;;
14316;SDS011;7242;50.858;6.586;2022-10-16T08:11:41;1.30;;;1.13;;
14316;SDS011;7242;50.858;6.586;2022-10-16T08:14:42;3.03;;;1.23;;
14316;SDS011;7242;50.858;6.586;2022-10-16T08:17:44;1.03;;;0.90;;
14316;SDS011;7242;50.858;6.586;2022-10-16T08:20:45;2.57;;;0.73;;
14316;SDS011;7242;50.858;6.586;2022-10-16T08:23:46;1.17;;;0.63;;
14316;SDS011;7242;50.858;6.586;2022-10-16T08:26:48;1.17;;;0.67;;
14316;SDS011;7242;50.858;6.586;2022-10-16T08:29:49;1.83;;;0.63;;
14316;SDS011;7242;50.858;6.586;2022-10-16T08:32:50;1.83;;;0.43;;
14316;SDS011;7242;50.858;6.586;2022-10-16T08:35:52;1.57;;;0.57;;
14316;SDS011;7242;50.858;6.586;2022-10-16T08:38:53;3.00;;;0.70;;
14316;SDS011;7242;50.858;6.586;2022-10-16T08:51:07;1.27;;;0.60;;
14316;SDS011;7242;50.858;6.586;2022-10-16T08:54:21;1.10;;;0.60;;
14316;SDS011;7242;50.858;6.586;2022-10-16T08:57:29;1.13;;;0.50;;
14316;SDS011;7242;50.858;6.586;2022-10-16T09:00:31;1.30;;;0.60;;
14316;SDS011;7242;50.858;6.586;2022-10-16T09:06:47;2.17;;;0.47;;
14316;SDS011;7242;50.858;6.586;2022-10-16T09:09:58;1.60;;;0.50;;
14316;SDS011;7242;50.858;6.586;2022-10-16T09:13:19;2.17;;;0.50;;
14316;SDS011;7242;50.858;6.586;2022-10-16T09:16:44;2.53;;;0.50;;
14316;SDS011;7242;50.858;6.586;2022-10-16T09:20:16;0.83;;;0.50;;
14316;SDS011;7242;50.858;6.586;2022-10-16T09:23:40;1.77;;;0.50;;
14316;SDS011;7242;50.858;6.586;2022-10-16T09:26:42;1.43;;;0.40;;
14316;SDS011;7242;50.858;6.586;2022-10-16T09:29:43;2.23;;;0.40;;
14316;SDS011;7242;50.858;6.586;2022-10-16T09:32:45;1.40;;;0.60;;
14316;SDS011;7242;50.858;6.586;2022-10-16T09:35:52;1.77;;;0.70;;
14316;SDS011;7242;50.858;6.586;2022-10-16T09:39:05;2.77;;;0.70;;
14316;SDS011;7242;50.858;6.586;2022-10-16T09:42:07;0.80;;;0.53;;
14316;SDS011;7242;50.858;6.586;2022-10-16T09:45:21;1.30;;;0.50;;
14316;SDS011;7242;50.858;6.586;2022-10-16T09:48:24;1.77;;;0.50;;
14316;SDS011;7242;50.858;6.586;2022-10-16T09:51:30;1.97;;;0.70;;
14316;SDS011;7242;50.858;6.586;2022-10-16T09:54:48;1.80;;;0.60;;
14316;SDS011;7242;50.858;6.586;2022-10-16T09:57:53;1.23;;;0.50;;
14316;SDS011;7242;50.858;6.586;2022-10-16T10:00:54;1.83;;;0.50;;
14316;SDS011;7242;50.858;6.586;2022-10-16T10:03:56;2.40;;;0.60;;
14316;SDS011;7242;50.858;6.586;2022-10-16T10:07:02;1.50;;;0.50;;
14316;SDS011;7242;50.858;6.586;2022-10-16T10:10:04;1.93;;;0.30;;
14316;SDS011;7242;50.858;6.586;2022-10-16T10:13:16;1.00;;;0.37;;
14316;SDS011;7242;50.858;6.586;2022-10-16T10:16:25;1.57;;;0.60;;
14316;SDS011;7242;50.858;6.586;2022-10-16T10:19:26;0.77;;;0.30;;
14316;SDS011;7242;50.858;6.586;2022-10-16T10:22:49;1.03;;;0.40;;
14316;SDS011;7242;50.858;6.586;2022-10-16T10:25:51;2.20;;;0.60;;
14316;SDS011;7242;50.858;6.586;2022-10-16T10:29:03;0.87;;;0.47;;
14316;SDS011;7242;50.858;6.586;2022-10-16T10:35:42;1.53;;;0.57;;
14316;SDS011;7242;50.858;6.586;2022-10-16T10:45:00;1.30;;;0.63;;
14316;SDS011;7242;50.858;6.586;2022-10-16T10:48:25;2.40;;;0.43;;
14316;SDS011;7242;50.858;6.586;2022-10-16T10:54:56;1.53;;;0.40;;
14316;SDS011;7242;50.858;6.586;2022-10-16T10:58:27;1.87;;;0.60;;
14316;SDS011;7242;50.858;6.586;2022-10-16T11:01:39;0.73;;;0.70;;
14316;SDS011;7242;50.858;6.586;2022-10-16T11:09:10;0.67;;;0.53;;
14316;SDS011;7242;50.858;6.586;2022-10-16T11:15:32;0.80;;;0.73;;
14316;SDS011;7242;50.858;6.586;2022-10-16T11:22:19;2.90;;;0.83;;
14316;SDS011;7242;50.858;6.586;2022-10-16T11:25:25;1.13;;;0.70;;
14316;SDS011;7242;50.858;6.586;2022-10-16T11:28:35;1.30;;;0.50;;
14316;SDS011;7242;50.858;6.586;2022-10-16T11:31:43;1.67;;;0.90;;
14316;SDS011;7242;50.858;6.586;2022-10-16T11:34:51;2.33;;;0.97;;
14316;SDS011;7242;50.858;6.586;2022-10-16T11:37:56;2.10;;;1.67;;
14316;SDS011;7242;50.858;6.586;2022-10-16T11:40:59;2.13;;;0.90;;
14316;SDS011;7242;50.858;6.586;2022-10-16T11:50:39;1.27;;;0.90;;
14316;SDS011;7242;50.858;6.586;2022-10-16T11:53:59;2.17;;;0.70;;
14316;SDS011;7242;50.858;6.586;2022-10-16T11:57:10;0.90;;;0.40;;
14316;SDS011;7242;50.858;6.586;2022-10-16T12:00:26;1.17;;;0.43;;
14316;SDS011;7242;50.858;6.586;2022-10-16T12:07:07;2.37;;;0.60;;
14316;SDS011;7242;50.858;6.586;2022-10-16T12:10:19;0.73;;;0.40;;
14316;SDS011;7242;50.858;6.586;2022-10-16T12:16:36;1.03;;;0.50;;
14316;SDS011;7242;50.858;6.586;2022-10-16T12:19:38;1.60;;;0.77;;
14316;SDS011;7242;50.858;6.586;2022-10-16T12:22:58;2.63;;;0.50;;
14316;SDS011;7242;50.858;6.586;2022-10-16T12:29:37;1.07;;;0.40;;
14316;SDS011;7242;50.858;6.586;2022-10-16T12:32:40;2.90;;;0.50;;
14316;SDS011;7242;50.858;6.586;2022-10-16T12:35:44;0.40;;;0.27;;
14316;SDS011;7242;50.858;6.586;2022-10-16T12:38:48;0.77;;;0.33;;
14316;SDS011;7242;50.858;6.586;2022-10-16T12:42:04;1.27;;;0.40;;
14316;SDS011;7242;50.858;6.586;2022-10-16T12:48:29;1.00;;;0.40;;
14316;SDS011;7242;50.858;6.586;2022-10-16T12:54:35;1.00;;;0.50;;
14316;SDS011;7242;50.858;6.586;2022-10-16T13:00:59;1.10;;;0.50;;
14316;SDS011;7242;50.858;6.586;2022-10-16T13:04:22;0.60;;;0.30;;
14316;SDS011;7242;50.858;6.586;2022-10-16T13:11:27;0.60;;;0.30;;
14316;SDS011;7242;50.858;6.586;2022-10-16T13:18:19;1.23;;;0.40;;
14316;SDS011;7242;50.858;6.586;2022-10-16T13:28:27;1.17;;;0.53;;
14316;SDS011;7242;50.858;6.586;2022-10-16T13:31:30;0.77;;;0.40;;
14316;SDS011;7242;50.858;6.586;2022-10-16T13:34:32;2.13;;;0.50;;
14316;SDS011;7242;50.858;6.586;2022-10-16T13:37:33;0.37;;;0.20;;
14316;SDS011;7242;50.858;6.586;2022-10-16T13:40:34;1.30;;;0.30;;
14316;SDS011;7242;50.858;6.586;2022-10-16T13:43:45;0.77;;;0.30;;
14316;SDS011;7242;50.858;6.586;2022-10-16T13:46:59;0.60;;;0.30;;
14316;SDS011;7242;50.858;6.586;2022-10-16T13:50:05;2.27;;;0.40;;
14316;SDS011;7242;50.858;6.586;2022-10-16T13:53:12;0.90;;;0.37;;
14316;SDS011;7242;50.858;6.586;2022-10-16T13:56:15;1.27;;;0.47;;
14316;SDS011;7242;50.858;6.586;2022-10-16T13:59:25;2.20;;;0.50;;
14316;SDS011;7242;50.858;6.586;2022-10-16T14:02:37;0.77;;;0.40;;
14316;SDS011;7242;50.858;6.586;2022-10-16T14:05:47;2.77;;;0.30;;
14316;SDS011;7242;50.858;6.586;2022-10-16T14:09:01;1.37;;;0.50;;
14316;SDS011;7242;50.858;6.586;2022-10-16T14:12:12;1.10;;;0.50;;
14316;SDS011;7242;50.858;6.586;2022-10-16T14:15:17;0.90;;;0.57;;
14316;SDS011;7242;50.858;6.586;2022-10-16T14:18:23;0.83;;;0.40;;
14316;SDS011;7242;50.858;6.586;2022-10-16T14:21:26;1.17;;;0.33;;
14316;SDS011;7242;50.858;6.586;2022-10-16T14:24:32;0.83;;;0.40;;
14316;SDS011;7242;50.858;6.586;2022-10-16T14:27:35;1.00;;;0.40;;
14316;SDS011;7242;50.858;6.586;2022-10-16T14:30:37;1.60;;;0.40;;
14316;SDS011;7242;50.858;6.586;2022-10-16T14:33:38;1.10;;;0.53;;
14316;SDS011;7242;50.858;6.586;2022-10-16T14:36:40;0.80;;;0.50;;
14316;SDS011;7242;50.858;6.586;2022-10-16T14:39:41;1.00;;;0.53;;
14316;SDS011;7242;50.858;6.586;2022-10-16T14:42:43;0.70;;;0.40;;
14316;SDS011;7242;50.858;6.586;2022-10-16T14:45:49;1.10;;;0.50;;
14316;SDS011;7242;50.858;6.586;2022-10-16T14:48:54;0.80;;;0.40;;
14316;SDS011;7242;50.858;6.586;2022-10-16T14:52:00;0.80;;;0.40;;
14316;SDS011;7242;50.858;6.586;2022-10-16T14:55:05;0.93;;;0.60;;
14316;SDS011;7242;50.858;6.586;2022-10-16T14:58:17;1.87;;;0.50;;
14316;SDS011;7242;50.858;6.586;2022-10-16T15:01:20;1.40;;;0.60;;
14316;SDS011;7242;50.858;6.586;2022-10-16T15:04:21;0.83;;;0.40;;
14316;SDS011;7242;50.858;6.586;2022-10-16T15:07:22;0.60;;;0.30;;
14316;SDS011;7242;50.858;6.586;2022-10-16T15:10:24;0.40;;;0.40;;
14316;SDS011;7242;50.858;6.586;2022-10-16T15:13:28;0.83;;;0.30;;
14316;SDS011;7242;50.858;6.586;2022-10-16T15:16:29;1.33;;;0.30;;
14316;SDS011;7242;50.858;6.586;2022-10-16T15:19:30;0.87;;;0.40;;
14316;SDS011;7242;50.858;6.586;2022-10-16T15:22:31;0.87;;;0.50;;
14316;SDS011;7242;50.858;6.586;2022-10-16T15:25:41;0.77;;;0.40;;
14316;SDS011;7242;50.858;6.586;2022-10-16T15:28:53;1.17;;;0.50;;
14316;SDS011;7242;50.858;6.586;2022-10-16T15:31:54;0.70;;;0.60;;
14316;SDS011;7242;50.858;6.586;2022-10-16T15:34:55;1.20;;;0.50;;
14316;SDS011;7242;50.858;6.586;2022-10-16T15:37:55;1.87;;;0.60;;
14316;SDS011;7242;50.858;6.586;2022-10-16T15:40:57;3.33;;;0.70;;
14316;SDS011;7242;50.858;6.586;2022-10-16T15:43:58;0.53;;;0.40;;
14316;SDS011;7242;50.858;6.586;2022-10-16T15:46:59;2.10;;;0.47;;
14316;SDS011;7242;50.858;6.586;2022-10-16T15:50:02;0.60;;;0.50;;
14316;SDS011;7242;50.858;6.586;2022-10-16T15:53:03;0.40;;;0.40;;
14316;SDS011;7242;50.858;6.586;2022-10-16T15:56:05;0.47;;;0.47;;
14316;SDS011;7242;50.858;6.586;2022-10-16T15:59:06;0.70;;;0.40;;
14316;SDS011;7242;50.858;6.586;2022-10-16T16:02:08;1.63;;;0.50;;
14316;SDS011;7242;50.858;6.586;2022-10-16T16:05:10;0.70;;;0.50;;
14316;SDS011;7242;50.858;6.586;2022-10-16T16:08:11;1.60;;;0.50;;
14316;SDS011;7242;50.858;6.586;2022-10-16T16:11:15;0.73;;;0.50;;
14316;SDS011;7242;50.858;6.586;2022-10-16T16:14:17;0.50;;;0.50;;
14316;SDS011;7242;50.858;6.586;2022-10-16T16:17:17;0.50;;;0.50;;
14316;SDS011;7242;50.858;6.586;2022-10-16T16:20:18;2.03;;;0.63;;
14316;SDS011;7242;50.858;6.586;2022-10-16T16:23:20;1.57;;;0.90;;
14316;SDS011;7242;50.858;6.586;2022-10-16T16:26:23;2.33;;;0.80;;
14316;SDS011;7242;50.858;6.586;2022-10-16T16:29:31;0.73;;;0.70;;
14316;SDS011;7242;50.858;6.586;2022-10-16T16:32:32;1.67;;;0.97;;
14316;SDS011;7242;50.858;6.586;2022-10-16T16:35:34;1.37;;;1.27;;
14316;SDS011;7242;50.858;6.586;2022-10-16T16:38:36;1.27;;;1.00;;
14316;SDS011;7242;50.858;6.586;2022-10-16T16:41:36;2.10;;;1.10;;
14316;SDS011;7242;50.858;6.586;2022-10-16T16:44:37;2.17;;;0.70;;
14316;SDS011;7242;50.858;6.586;2022-10-16T16:47:39;1.37;;;0.80;;
14316;SDS011;7242;50.858;6.586;2022-10-16T16:50:40;2.03;;;0.90;;
14316;SDS011;7242;50.858;6.586;2022-10-16T16:53:42;0.93;;;0.70;;
14316;SDS011;7242;50.858;6.586;2022-10-16T16:56:44;1.70;;;0.60;;
14316;SDS011;7242;50.858;6.586;2022-10-16T16:59:45;0.73;;;0.73;;
14316;SDS011;7242;50.858;6.586;2022-10-16T17:02:50;0.80;;;0.70;;
14316;SDS011;7242;50.858;6.586;2022-10-16T17:05:55;1.60;;;0.83;;
14316;SDS011;7242;50.858;6.586;2022-10-16T17:09:04;0.60;;;0.60;;
14316;SDS011;7242;50.858;6.586;2022-10-16T17:12:06;1.00;;;0.60;;
14316;SDS011;7242;50.858;6.586;2022-10-16T17:15:07;1.80;;;0.50;;
14316;SDS011;7242;50.858;6.586;2022-10-16T17:18:09;1.80;;;0.87;;
14316;SDS011;7242;50.858;6.586;2022-10-16T17:21:10;1.43;;;0.80;;
14316;SDS011;7242;50.858;6.586;2022-10-16T17:24:11;3.43;;;0.90;;
14316;SDS011;7242;50.858;6.586;2022-10-16T17:27:12;1.27;;;0.70;;
14316;SDS011;7242;50.858;6.586;2022-10-16T17:30:13;0.63;;;0.63;;
14316;SDS011;7242;50.858;6.586;2022-10-16T17:33:14;2.37;;;0.60;;
14316;SDS011;7242;50.858;6.586;2022-10-16T17:36:15;1.60;;;0.70;;
14316;SDS011;7242;50.858;6.586;2022-10-16T17:39:17;0.70;;;0.70;;
14316;SDS011;7242;50.858;6.586;2022-10-16T17:42:18;0.83;;;0.80;;
14316;SDS011;7242;50.858;6.586;2022-10-16T17:45:20;0.87;;;0.80;;
14316;SDS011;7242;50.858;6.586;2022-10-16T17:48:21;0.70;;;0.70;;
14316;SDS011;7242;50.858;6.586;2022-10-16T17:51:24;2.00;;;0.87;;
14316;SDS011;7242;50.858;6.586;2022-10-16T17:54:26;1.27;;;0.50;;
14316;SDS011;7242;50.858;6.586;2022-10-16T17:57:28;0.90;;;0.70;;
14316;SDS011;7242;50.858;6.586;2022-10-16T18:00:29;0.70;;;0.70;;
14316;SDS011;7242;50.858;6.586;2022-10-16T18:03:30;1.50;;;0.90;;
14316;SDS011;7242;50.858;6.586;2022-10-16T18:06:32;0.73;;;0.70;;
14316;SDS011;7242;50.858;6.586;2022-10-16T18:09:33;2.33;;;0.60;;
14316;SDS011;7242;50.858;6.586;2022-10-16T18:12:34;1.37;;;0.80;;
14316;SDS011;7242;50.858;6.586;2022-10-16T18:15:35;1.00;;;0.80;;
14316;SDS011;7242;50.858;6.586;2022-10-16T18:18:37;1.77;;;0.83;;
14316;SDS011;7242;50.858;6.586;2022-10-16T18:21:39;1.07;;;0.90;;
14316;SDS011;7242;50.858;6.586;2022-10-16T18:24:40;1.30;;;1.10;;
14316;SDS011;7242;50.858;6.586;2022-10-16T18:27:41;0.80;;;0.80;;
14316;SDS011;7242;50.858;6.586;2022-10-16T18:30:42;1.00;;;0.90;;
14316;SDS011;7242;50.858;6.586;2022-10-16T18:33:44;1.33;;;1.23;;
14316;SDS011;7242;50.858;6.586;2022-10-16T18:36:49;1.83;;;0.90;;
14316;SDS011;7242;50.858;6.586;2022-10-16T18:39:51;2.90;;;1.00;;
14316;SDS011;7242;50.858;6.586;2022-10-16T18:42:52;1.20;;;1.10;;
14316;SDS011;7242;50.858;6.586;2022-10-16T18:45:54;1.37;;;1.20;;
14316;SDS011;7242;50.858;6.586;2022-10-16T18:49:00;1.20;;;1.03;;
14316;SDS011;7242;50.858;6.586;2022-10-16T18:52:02;1.57;;;1.30;;
14316;SDS011;7242;50.858;6.586;2022-10-16T18:55:03;1.97;;;1.20;;
14316;SDS011;7242;50.858;6.586;2022-10-16T18:58:04;1.30;;;1.20;;
14316;SDS011;7242;50.858;6.586;2022-10-16T19:01:06;2.53;;;1.20;;
14316;SDS011;7242;50.858;6.586;2022-10-16T19:04:10;2.00;;;1.20;;
14316;SDS011;7242;50.858;6.586;2022-10-16T19:07:12;1.37;;;1.27;;
14316;SDS011;7242;50.858;6.586;2022-10-16T19:10:14;2.37;;;1.30;;
14316;SDS011;7242;50.858;6.586;2022-10-16T19:13:16;2.07;;;1.10;;
14316;SDS011;7242;50.858;6.586;2022-10-16T19:16:18;2.03;;;1.20;;
14316;SDS011;7242;50.858;6.586;2022-10-16T19:19:20;1.63;;;1.37;;
14316;SDS011;7242;50.858;6.586;2022-10-16T19:22:23;1.30;;;1.20;;
14316;SDS011;7242;50.858;6.586;2022-10-16T19:25:30;1.60;;;1.50;;
14316;SDS011;7242;50.858;6.586;2022-10-16T19:28:31;1.50;;;1.40;;
14316;SDS011;7242;50.858;6.586;2022-10-16T19:31:32;2.07;;;1.67;;
14316;SDS011;7242;50.858;6.586;2022-10-16T19:34:33;2.53;;;1.80;;
14316;SDS011;7242;50.858;6.586;2022-10-16T19:37:35;1.70;;;1.60;;
14316;SDS011;7242;50.858;6.586;2022-10-16T19:40:36;2.03;;;1.40;;
14316;SDS011;7242;50.858;6.586;2022-10-16T19:43:38;1.60;;;1.50;;
14316;SDS011;7242;50.858;6.586;2022-10-16T19:46:39;1.60;;;1.50;;
14316;SDS011;7242;50.858;6.586;2022-10-16T19:49:41;2.43;;;1.63;;
14316;SDS011;7242;50.858;6.586;2022-10-16T19:52:42;1.97;;;1.77;;
14316;SDS011;7242;50.858;6.586;2022-10-16T19:55:43;2.10;;;1.83;;
14316;SDS011;7242;50.858;6.586;2022-10-16T19:58:45;2.70;;;1.80;;
14316;SDS011;7242;50.858;6.586;2022-10-16T20:01:46;2.00;;;1.80;;
14316;SDS011;7242;50.858;6.586;2022-10-16T20:04:47;2.90;;;1.93;;
14316;SDS011;7242;50.858;6.586;2022-10-16T20:07:48;1.70;;;1.60;;
14316;SDS011;7242;50.858;6.586;2022-10-16T20:10:50;2.33;;;2.13;;
14316;SDS011;7242;50.858;6.586;2022-10-16T20:13:52;2.30;;;2.10;;
14316;SDS011;7242;50.858;6.586;2022-10-16T20:16:54;3.30;;;2.40;;